createdAt,value
2017-08-10T00:00:59.984Z,98472.26
2017-08-10T00:03:28.326Z,98464.33
2017-08-10T00:05:56.654Z,98468.86
2017-08-10T00:08:25.022Z,98476.02
2017-08-10T00:10:53.384Z,98476.87
2017-08-10T00:13:22.133Z,98483.00
2017-08-10T00:15:50.474Z,98477.64
2017-08-10T00:18:19.873Z,98471.91
2017-08-10T00:20:48.205Z,98477.17
2017-08-10T00:23:16.519Z,98486.56
2017-08-10T00:25:45.630Z,98492.18
2017-08-10T00:28:13.960Z,98492.86
2017-08-10T00:30:42.311Z,98497.09
2017-08-10T00:33:10.640Z,98497.57
2017-08-10T00:35:39.044Z,98490.04
2017-08-10T00:38:08.150Z,98491.95
2017-08-10T00:40:36.497Z,98506.75
2017-08-10T00:43:04.852Z,98511.16
2017-08-10T00:45:33.175Z,98513.19
2017-08-10T00:48:02.348Z,98503.13
2017-08-10T00:50:30.668Z,98508.11
2017-08-10T00:52:59.009Z,98509.57
2017-08-10T00:55:27.341Z,98510.14
2017-08-10T00:57:55.725Z,98512.01
2017-08-10T01:00:24.075Z,98504.75
2017-08-10T01:02:53.178Z,98500.01
2017-08-10T01:05:21.521Z,98502.19
2017-08-10T01:07:49.855Z,98506.42
2017-08-10T01:10:18.205Z,98514.28
2017-08-10T01:12:47.298Z,98514.42
2017-08-10T01:15:15.994Z,98527.16
2017-08-10T01:17:44.336Z,98535.04
2017-08-10T01:20:12.669Z,98533.30
2017-08-10T01:22:41.050Z,98532.78
2017-08-10T01:25:09.385Z,98535.27
2017-08-10T01:27:37.724Z,98533.12
2017-08-10T01:30:06.049Z,98536.31
2017-08-10T01:32:34.734Z,98539.53
2017-08-10T01:35:03.112Z,98533.84
2017-08-10T01:37:31.449Z,98527.36
2017-08-10T01:39:59.809Z,98518.99
2017-08-10T01:42:28.151Z,98523.47
2017-08-10T01:44:56.502Z,98523.88
2017-08-10T01:47:24.836Z,98518.59
2017-08-10T01:49:53.962Z,98515.41
2017-08-10T01:52:22.298Z,98530.89
2017-08-10T01:54:50.627Z,98527.02
2017-08-10T01:57:18.968Z,98530.30
2017-08-10T01:59:48.070Z,98536.56
2017-08-10T02:02:16.516Z,98540.37
2017-08-10T02:04:44.849Z,98544.41
2017-08-10T02:07:13.200Z,98548.07
2017-08-10T02:09:41.549Z,98553.29
2017-08-10T02:12:09.905Z,98552.87
2017-08-10T02:14:38.253Z,98546.86
2017-08-10T02:17:06.588Z,98542.31
2017-08-10T02:19:34.968Z,98546.76
2017-08-10T02:22:03.312Z,98541.34
2017-08-10T02:24:32.167Z,98525.62
2017-08-10T02:27:00.504Z,98519.45
2017-08-10T02:29:28.826Z,98519.30
2017-08-10T02:31:57.946Z,98525.56
2017-08-10T02:34:26.294Z,98524.15
2017-08-10T02:36:54.695Z,98523.75
2017-08-10T02:39:23.050Z,98527.30
2017-08-10T02:41:51.396Z,98534.05
2017-08-10T02:44:19.744Z,98529.34
2017-08-10T02:46:48.064Z,98521.94
2017-08-10T02:49:16.419Z,98524.45
2017-08-10T02:51:44.778Z,98512.63
2017-08-10T02:54:13.570Z,98523.97
2017-08-10T02:56:41.910Z,98520.20
2017-08-10T02:59:11.170Z,98516.50
2017-08-10T03:01:39.913Z,98516.37
2017-08-10T03:04:09.014Z,98505.83
2017-08-10T03:06:37.369Z,98501.73
2017-08-10T03:09:05.681Z,98501.52
2017-08-10T03:11:34.792Z,98510.08
2017-08-10T03:14:03.121Z,98505.30
2017-08-10T03:16:31.473Z,98504.32
2017-08-10T03:18:59.816Z,98503.77
2017-08-10T03:21:28.129Z,98496.85
2017-08-10T03:23:56.882Z,98497.62
2017-08-10T03:26:25.974Z,98494.23
2017-08-10T03:28:54.324Z,98500.89
2017-08-10T03:31:22.652Z,98501.09
2017-08-10T03:33:51.020Z,98506.80
2017-08-10T03:36:19.359Z,98507.51
2017-08-10T03:38:48.389Z,98513.89
2017-08-10T03:41:17.482Z,98517.57
2017-08-10T03:43:45.796Z,98520.39
2017-08-10T03:46:14.554Z,98512.73
2017-08-10T03:48:42.866Z,98512.00
2017-08-10T03:51:11.182Z,98510.58
2017-08-10T03:53:39.531Z,98503.38
2017-08-10T03:56:07.851Z,98503.20
2017-08-10T03:58:36.180Z,98505.13
2017-08-10T04:01:04.492Z,98505.38
2017-08-10T04:03:32.831Z,98503.95
2017-08-10T04:06:01.725Z,98505.72
2017-08-10T04:08:30.066Z,98506.00
2017-08-10T04:10:58.409Z,98507.45
2017-08-10T04:13:26.729Z,98507.74
2017-08-10T04:15:55.337Z,98509.55
2017-08-10T04:18:23.671Z,98518.25
2017-08-10T04:20:51.987Z,98509.27
2017-08-10T04:23:20.334Z,98506.41
2017-08-10T04:25:48.659Z,98510.00
2017-08-10T04:28:17.321Z,98521.52
2017-08-10T04:30:45.660Z,98528.58
2017-08-10T04:33:13.994Z,98531.67
2017-08-10T04:35:42.356Z,98541.94
2017-08-10T04:38:11.444Z,98540.92
2017-08-10T04:40:39.837Z,98551.98
2017-08-10T04:43:08.151Z,98547.70
2017-08-10T04:45:36.757Z,98547.94
2017-08-10T04:48:05.533Z,98553.95
2017-08-10T04:50:33.853Z,98547.75
2017-08-10T04:53:02.988Z,98548.64
2017-08-10T04:55:31.326Z,98559.61
2017-08-10T04:57:59.683Z,98562.36
2017-08-10T05:00:28.005Z,98558.06
2017-08-10T05:02:56.369Z,98564.84
2017-08-10T05:05:25.476Z,98571.69
2017-08-10T05:07:53.823Z,98574.80
2017-08-10T05:10:22.183Z,98568.92
2017-08-10T05:12:50.513Z,98551.91
2017-08-10T05:15:19.629Z,98546.13
2017-08-10T05:17:47.956Z,98538.75
2017-08-10T05:20:16.302Z,98540.38
2017-08-10T05:22:44.643Z,98536.02
2017-08-10T05:25:13.766Z,98537.97
2017-08-10T05:27:42.105Z,98544.39
2017-08-10T05:30:10.422Z,98551.30
2017-08-10T05:32:38.802Z,98556.50
2017-08-10T05:35:07.133Z,98560.52
2017-08-10T05:37:35.486Z,98569.52
2017-08-10T05:40:03.806Z,98576.60
2017-08-10T05:42:32.703Z,98583.11
2017-08-10T05:45:01.016Z,98578.82
2017-08-10T05:47:29.348Z,98580.42
2017-08-10T05:49:57.685Z,98587.83
2017-08-10T05:52:26.009Z,98598.48
2017-08-10T05:54:54.372Z,98599.10
2017-08-10T05:57:22.696Z,98597.90
2017-08-10T05:59:51.042Z,98589.50
2017-08-10T06:02:19.417Z,98584.00
2017-08-10T06:04:47.767Z,98588.20
2017-08-10T06:07:16.113Z,98591.45
2017-08-10T06:09:44.525Z,98592.57
2017-08-10T06:12:12.879Z,98583.95
2017-08-10T06:14:41.209Z,98592.92
2017-08-10T06:17:10.042Z,98606.23
2017-08-10T06:19:38.372Z,98609.81
2017-08-10T06:22:06.701Z,98602.77
2017-08-10T06:24:35.046Z,98599.97
2017-08-10T06:27:03.366Z,98604.55
2017-08-10T06:29:31.716Z,98599.56
2017-08-10T06:32:00.055Z,98608.49
2017-08-10T06:34:28.685Z,98611.33
2017-08-10T06:36:57.034Z,98617.68
2017-08-10T06:39:25.368Z,98616.49
2017-08-10T06:41:53.729Z,98614.39
2017-08-10T06:44:22.828Z,98616.61
2017-08-10T06:46:51.188Z,98611.48
2017-08-10T06:49:19.524Z,98599.72
2017-08-10T06:51:47.903Z,98605.00
2017-08-10T06:54:16.238Z,98608.80
2017-08-10T06:56:45.380Z,98614.55
2017-08-10T06:59:13.738Z,98613.67
2017-08-10T07:01:42.087Z,98613.34
2017-08-10T07:04:10.449Z,98611.61
2017-08-10T07:06:38.826Z,98614.66
2017-08-10T07:09:07.204Z,98608.28
2017-08-10T07:11:35.540Z,98606.52
2017-08-10T07:14:03.898Z,98608.84
2017-08-10T07:16:33.008Z,98614.47
2017-08-10T07:19:01.334Z,98604.55
2017-08-10T07:21:29.697Z,98600.15
2017-08-10T07:23:58.039Z,98590.73
2017-08-10T07:26:27.164Z,98578.97
2017-08-10T07:28:55.508Z,98577.55
2017-08-10T07:31:23.864Z,98579.78
2017-08-10T07:33:52.209Z,98577.23
2017-08-10T07:36:20.545Z,98587.66
2017-08-10T07:38:49.652Z,98591.50
2017-08-10T07:41:17.975Z,98584.25
2017-08-10T07:43:46.316Z,98588.92
2017-08-10T07:46:14.652Z,98600.73
2017-08-10T07:48:43.005Z,98606.92
2017-08-10T07:51:11.376Z,98617.89
2017-08-10T07:53:39.700Z,98626.86
2017-08-10T07:56:08.057Z,98638.95
2017-08-10T07:58:36.399Z,98635.86
2017-08-10T08:01:05.081Z,98639.70
2017-08-10T08:03:33.428Z,98634.61
2017-08-10T08:06:01.773Z,98632.84
2017-08-10T08:08:30.117Z,98633.06
2017-08-10T08:10:58.440Z,98646.92
2017-08-10T08:13:26.787Z,98646.13
2017-08-10T08:15:55.107Z,98654.46
2017-08-10T08:18:23.734Z,98653.13
2017-08-10T08:20:52.048Z,98654.28
2017-08-10T08:23:20.373Z,98652.34
2017-08-10T08:25:49.514Z,98651.09
2017-08-10T08:28:17.826Z,98653.22
2017-08-10T08:30:46.177Z,98650.52
2017-08-10T08:33:14.552Z,98655.48
2017-08-10T08:35:43.326Z,98663.35
2017-08-10T08:38:11.687Z,98665.41
2017-08-10T08:40:40.024Z,98655.12
2017-08-10T08:43:08.388Z,98656.77
2017-08-10T08:45:36.723Z,98651.14
2017-08-10T08:48:05.838Z,98650.02
2017-08-10T08:50:34.198Z,98648.98
2017-08-10T08:53:02.901Z,98653.23
2017-08-10T08:55:31.235Z,98647.56
2017-08-10T08:57:59.572Z,98651.16
2017-08-10T09:00:27.962Z,98653.48
2017-08-10T09:02:56.288Z,98655.51
2017-08-10T09:05:24.643Z,98655.95
2017-08-10T09:07:52.978Z,98659.27
2017-08-10T09:10:21.307Z,98657.77
2017-08-10T09:12:49.660Z,98645.42
2017-08-10T09:15:17.992Z,98657.98
2017-08-10T09:17:46.383Z,98640.82
2017-08-10T09:20:14.731Z,98622.67
2017-08-10T09:22:43.094Z,98620.27
2017-08-10T09:25:11.459Z,98612.95
2017-08-10T09:27:39.808Z,98619.02
2017-08-10T09:30:08.946Z,98626.90
2017-08-10T09:32:37.281Z,98623.37
2017-08-10T09:35:05.637Z,98627.64
2017-08-10T09:37:33.968Z,98641.68
2017-08-10T09:40:02.321Z,98641.80
2017-08-10T09:42:31.445Z,98643.64
2017-08-10T09:44:59.795Z,98650.41
2017-08-10T09:47:28.142Z,98654.22
2017-08-10T09:49:56.491Z,98650.05
2017-08-10T09:52:24.857Z,98656.47
2017-08-10T09:54:53.194Z,98644.94
2017-08-10T09:57:21.540Z,98646.80
2017-08-10T09:59:49.878Z,98646.48
2017-08-10T10:02:18.208Z,98637.92
2017-08-10T10:04:46.556Z,98634.78
2017-08-10T10:07:14.880Z,98633.81
2017-08-10T10:09:43.538Z,98642.86
2017-08-10T10:12:11.869Z,98654.48
2017-08-10T10:14:40.969Z,98657.66
2017-08-10T10:17:09.321Z,98659.14
2017-08-10T10:19:37.670Z,98666.79
2017-08-10T10:22:06.029Z,98672.59
2017-08-10T10:24:34.357Z,98683.63
2017-08-10T10:27:03.203Z,98690.37
2017-08-10T10:29:31.552Z,98705.05
2017-08-10T10:31:59.892Z,98711.25
2017-08-10T10:34:28.253Z,98704.32
2017-08-10T10:36:56.585Z,98699.38
2017-08-10T10:39:25.706Z,98684.22
2017-08-10T10:41:54.027Z,98690.77
2017-08-10T10:44:22.384Z,98694.03
2017-08-10T10:46:50.727Z,98703.28
2017-08-10T10:49:19.840Z,98696.17
2017-08-10T10:51:48.187Z,98691.52
2017-08-10T10:54:16.525Z,98678.61
2017-08-10T10:56:44.882Z,98664.88
2017-08-10T10:59:13.214Z,98669.75
2017-08-10T11:01:42.038Z,98668.14
2017-08-10T11:04:10.381Z,98666.30
2017-08-10T11:06:38.813Z,98653.00
2017-08-10T11:09:07.171Z,98650.77
2017-08-10T11:11:35.519Z,98647.60
2017-08-10T11:14:03.898Z,98661.74
2017-08-10T11:16:32.249Z,98668.11
2017-08-10T11:19:01.024Z,98666.54
2017-08-10T11:21:29.352Z,98661.53
2017-08-10T11:23:58.441Z,98652.19
2017-08-10T11:26:26.785Z,98641.61
2017-08-10T11:28:55.110Z,98644.03
2017-08-10T11:31:23.460Z,98659.13
2017-08-10T11:33:51.805Z,98659.32
2017-08-10T11:36:20.599Z,98656.40
2017-08-10T11:38:48.929Z,98662.13
2017-08-10T11:41:17.253Z,98662.84
2017-08-10T11:43:45.596Z,98655.52
2017-08-10T11:46:13.942Z,98651.98
2017-08-10T11:48:42.314Z,98642.42
2017-08-10T11:51:10.659Z,98641.98
2017-08-10T11:53:39.018Z,98648.84
2017-08-10T11:56:07.386Z,98648.11
2017-08-10T11:58:35.709Z,98643.77
2017-08-10T12:01:04.069Z,98652.29
2017-08-10T12:03:32.404Z,98664.36
2017-08-10T12:06:00.757Z,98675.45
2017-08-10T12:08:29.093Z,98666.16
2017-08-10T12:10:57.565Z,98664.15
2017-08-10T12:13:25.878Z,98674.46
2017-08-10T12:15:55.417Z,98662.07
2017-08-10T12:18:23.775Z,98665.05
2017-08-10T12:20:52.115Z,98666.42
2017-08-10T12:23:20.462Z,98663.25
2017-08-10T12:25:48.814Z,98657.61
2017-08-10T12:28:17.175Z,98648.73
2017-08-10T12:30:45.542Z,98636.61
2017-08-10T12:33:13.877Z,98629.91
2017-08-10T12:35:42.226Z,98632.78
2017-08-10T12:38:10.567Z,98634.06
2017-08-10T12:40:38.923Z,98643.35
2017-08-10T12:43:07.242Z,98647.22
2017-08-10T12:45:35.593Z,98660.27
2017-08-10T12:48:03.944Z,98663.52
2017-08-10T12:50:32.254Z,98673.13
2017-08-10T12:53:00.588Z,98674.64
2017-08-10T12:55:28.910Z,98673.92
2017-08-10T12:57:57.268Z,98665.63
2017-08-10T13:00:25.590Z,98658.58
2017-08-10T13:02:54.491Z,98662.95
2017-08-10T13:05:22.815Z,98666.06
2017-08-10T13:07:51.145Z,98660.77
2017-08-10T13:10:19.481Z,98661.84
2017-08-10T13:12:47.798Z,98658.05
2017-08-10T13:15:16.161Z,98666.82
2017-08-10T13:17:44.507Z,98666.92
2017-08-10T13:20:12.858Z,98666.87
2017-08-10T13:22:41.214Z,98669.14
2017-08-10T13:25:09.550Z,98675.13
2017-08-10T13:27:37.901Z,98680.66
2017-08-10T13:30:06.240Z,98680.31
2017-08-10T13:32:34.593Z,98678.57
2017-08-10T13:35:02.924Z,98676.06
2017-08-10T13:37:31.284Z,98676.22
2017-08-10T13:40:00.124Z,98663.05
2017-08-10T13:42:28.453Z,98670.81
2017-08-10T13:44:56.820Z,98666.11
2017-08-10T13:47:25.169Z,98660.75
2017-08-10T13:49:54.043Z,98656.40
2017-08-10T13:52:22.375Z,98644.11
2017-08-10T13:54:50.696Z,98635.69
2017-08-10T13:57:19.034Z,98633.45
2017-08-10T13:59:47.354Z,98624.33
2017-08-10T14:02:16.011Z,98620.73
2017-08-10T14:04:44.355Z,98612.80
2017-08-10T14:07:12.698Z,98610.43
2017-08-10T14:09:41.062Z,98605.95
2017-08-10T14:12:09.409Z,98607.36
2017-08-10T14:14:37.758Z,98612.58
2017-08-10T14:17:06.115Z,98620.45
2017-08-10T14:19:34.860Z,98622.45
2017-08-10T14:22:03.188Z,98627.55
2017-08-10T14:24:31.518Z,98622.88
2017-08-10T14:26:59.904Z,98614.76
2017-08-10T14:29:28.336Z,98617.91
2017-08-10T14:31:56.700Z,98622.53
2017-08-10T14:34:25.793Z,98626.80
2017-08-10T14:36:54.493Z,98620.70
2017-08-10T14:39:22.810Z,98614.03
2017-08-10T14:41:51.377Z,98614.73
2017-08-10T14:44:19.730Z,98608.91
2017-08-10T14:46:48.064Z,98602.94
2017-08-10T14:49:16.413Z,98600.39
2017-08-10T14:51:44.790Z,98605.52
2017-08-10T14:54:13.150Z,98591.23
2017-08-10T14:56:41.495Z,98584.76
2017-08-10T14:59:09.828Z,98578.05
2017-08-10T15:01:38.177Z,98573.37
2017-08-10T15:04:07.280Z,98561.05
2017-08-10T15:06:35.635Z,98558.89
2017-08-10T15:09:03.976Z,98559.36
2017-08-10T15:11:32.729Z,98567.73
2017-08-10T15:14:01.065Z,98566.48
2017-08-10T15:16:29.396Z,98572.77
2017-08-10T15:18:57.767Z,98572.65
2017-08-10T15:21:26.097Z,98580.06
2017-08-10T15:23:54.455Z,98580.09
2017-08-10T15:26:22.828Z,98578.77
2017-08-10T15:28:51.606Z,98575.75
2017-08-10T15:31:19.962Z,98570.69
2017-08-10T15:33:49.071Z,98577.27
2017-08-10T15:36:17.414Z,98578.83
2017-08-10T15:38:45.767Z,98580.94
2017-08-10T15:41:14.138Z,98573.39
2017-08-10T15:43:42.521Z,98567.47
2017-08-10T15:46:10.872Z,98571.56
2017-08-10T15:48:39.907Z,98576.55
2017-08-10T15:51:08.711Z,98574.31
2017-08-10T15:53:37.755Z,98580.43
2017-08-10T15:56:06.626Z,98599.84
2017-08-10T15:58:35.549Z,98604.95
2017-08-10T16:01:04.594Z,98611.06
2017-08-10T16:03:33.641Z,98605.87
2017-08-10T16:06:02.007Z,98604.59
2017-08-10T16:08:30.337Z,98599.34
2017-08-10T16:10:58.702Z,98597.77
2017-08-10T16:13:27.041Z,98599.41
2017-08-10T16:15:56.168Z,98602.38
2017-08-10T16:18:24.501Z,98603.58
2017-08-10T16:20:52.853Z,98602.02
2017-08-10T16:23:21.201Z,98603.52
2017-08-10T16:25:49.561Z,98594.85
2017-08-10T16:28:17.958Z,98599.23
2017-08-10T16:30:46.291Z,98594.46
2017-08-10T16:33:14.653Z,98602.64
2017-08-10T16:35:42.987Z,98609.25
2017-08-10T16:38:11.348Z,98606.87
2017-08-10T16:40:39.696Z,98606.98
2017-08-10T16:43:08.028Z,98610.53
2017-08-10T16:45:36.376Z,98612.01
2017-08-10T16:48:04.716Z,98615.38
2017-08-10T16:50:33.095Z,98615.73
2017-08-10T16:53:01.454Z,98604.09
2017-08-10T16:55:29.847Z,98608.72
2017-08-10T16:57:58.209Z,98612.14
2017-08-10T17:00:26.539Z,98618.09
2017-08-10T17:02:54.898Z,98617.38
2017-08-10T17:05:23.229Z,98611.72
2017-08-10T17:07:51.578Z,98617.52
2017-08-10T17:10:19.910Z,98614.81
2017-08-10T17:12:48.282Z,98619.45
2017-08-10T17:15:16.648Z,98628.63
2017-08-10T17:17:44.996Z,98622.44
2017-08-10T17:20:14.419Z,98628.98
2017-08-10T17:22:43.254Z,98623.59
2017-08-10T17:25:11.616Z,98621.33
2017-08-10T17:27:40.941Z,98626.58
2017-08-10T17:30:09.289Z,98619.08
2017-08-10T17:32:37.638Z,98617.56
2017-08-10T17:35:05.968Z,98615.45
2017-08-10T17:37:34.452Z,98617.59
2017-08-10T17:40:02.833Z,98620.08
2017-08-10T17:42:31.362Z,98626.67
2017-08-10T17:45:00.829Z,98627.60
2017-08-10T17:47:29.523Z,98622.63
2017-08-10T17:49:57.964Z,98622.84
2017-08-10T17:52:26.320Z,98619.56
2017-08-10T17:54:55.118Z,98614.30
2017-08-10T17:57:23.444Z,98620.06
2017-08-10T17:59:51.771Z,98617.23
2017-08-10T18:02:20.131Z,98618.23
2017-08-10T18:04:48.476Z,98610.05
2017-08-10T18:07:17.094Z,98603.69
2017-08-10T18:09:45.437Z,98598.89
2017-08-10T18:12:13.792Z,98597.66
2017-08-10T18:14:42.135Z,98599.62
2017-08-10T18:17:10.480Z,98597.41
2017-08-10T18:19:39.153Z,98597.39
2017-08-10T18:22:07.589Z,98599.83
2017-08-10T18:24:35.939Z,98600.97
2017-08-10T18:27:04.297Z,98604.41
2017-08-10T18:29:32.637Z,98598.49
2017-08-10T18:32:01.007Z,98603.38
2017-08-10T18:34:29.343Z,98600.95
2017-08-10T18:36:57.687Z,98605.59
2017-08-10T18:39:26.796Z,98606.93
2017-08-10T18:41:55.133Z,98608.88
2017-08-10T18:44:23.491Z,98609.69
2017-08-10T18:46:51.822Z,98610.33
2017-08-10T18:49:20.949Z,98615.20
2017-08-10T18:51:49.814Z,98616.78
2017-08-10T18:54:23.570Z,98609.80
2017-08-10T18:56:57.766Z,98612.92
2017-08-10T18:59:26.795Z,98605.21
2017-08-10T19:01:55.697Z,98605.21
2017-08-10T19:04:24.042Z,98617.38
2017-08-10T19:06:52.599Z,98611.60
2017-08-10T19:09:20.957Z,98614.36
2017-08-10T19:11:49.327Z,98603.47
2017-08-10T19:14:17.671Z,98607.64
2017-08-10T19:16:46.047Z,98614.05
2017-08-10T19:19:14.395Z,98618.22
2017-08-10T19:21:46.719Z,98613.95
2017-08-10T19:24:15.077Z,98613.61
2017-08-10T19:26:43.434Z,98611.88
2017-08-10T19:29:11.781Z,98616.88
2017-08-10T19:31:40.121Z,98620.93
2017-08-10T19:34:08.506Z,98610.17
2017-08-10T19:36:37.742Z,98611.83
2017-08-10T19:39:06.358Z,98610.81
2017-08-10T19:41:34.749Z,98604.72
2017-08-10T19:44:03.082Z,98605.31
2017-08-10T19:46:31.727Z,98604.33
2017-08-10T19:49:00.063Z,98596.52
2017-08-10T19:51:28.397Z,98600.08
2017-08-10T19:53:56.751Z,98603.91
2017-08-10T19:56:25.196Z,98604.11
2017-08-10T19:58:53.544Z,98610.41
2017-08-10T20:01:21.863Z,98613.36
2017-08-10T20:03:50.222Z,98603.94
2017-08-10T20:06:18.586Z,98606.77
2017-08-10T20:08:46.953Z,98603.23
2017-08-10T20:11:15.358Z,98599.19
2017-08-10T20:13:43.695Z,98603.86
2017-08-10T20:16:12.050Z,98598.18
2017-08-10T20:18:40.434Z,98605.96
2017-08-10T20:21:08.819Z,98605.86
2017-08-10T20:23:37.220Z,98601.22
2017-08-10T20:26:05.561Z,98598.37
2017-08-10T20:28:33.929Z,98597.38
2017-08-10T20:31:02.257Z,98600.91
2017-08-10T20:33:30.633Z,98600.91
2017-08-10T20:35:58.951Z,98600.19
2017-08-10T20:38:27.299Z,98595.00
2017-08-10T20:40:55.672Z,98599.60
2017-08-10T20:43:24.021Z,98604.45
2017-08-10T20:45:52.374Z,98613.87
2017-08-10T20:48:20.706Z,98617.31
2017-08-10T20:50:49.048Z,98609.92
2017-08-10T20:53:17.371Z,98606.96
2017-08-10T20:55:45.754Z,98602.02
2017-08-10T20:58:14.096Z,98600.60
2017-08-10T21:00:42.447Z,98601.70
2017-08-10T21:03:10.987Z,98598.37
2017-08-10T21:05:39.389Z,98597.05
2017-08-10T21:08:07.747Z,98589.25
2017-08-10T21:10:36.072Z,98593.61
2017-08-10T21:13:04.674Z,98585.40
2017-08-10T21:15:33.784Z,98587.22
2017-08-10T21:18:02.102Z,98582.95
2017-08-10T21:20:30.441Z,98579.09
2017-08-10T21:22:58.771Z,98582.45
2017-08-10T21:25:27.104Z,98585.39
2017-08-10T21:27:55.414Z,98588.44
2017-08-10T21:30:24.203Z,98587.62
2017-08-10T21:32:52.536Z,98581.95
2017-08-10T21:35:20.865Z,98589.35
2017-08-10T21:37:49.223Z,98579.91
2017-08-10T21:40:17.561Z,98575.95
2017-08-10T21:42:45.932Z,98574.05
2017-08-10T21:45:14.252Z,98568.78
2017-08-10T21:47:42.596Z,98573.52
2017-08-10T21:50:10.940Z,98576.45
2017-08-10T21:52:39.380Z,98576.63
2017-08-10T21:55:08.512Z,98576.84
2017-08-10T21:57:36.860Z,98574.81
2017-08-10T22:00:05.196Z,98584.02
2017-08-10T22:02:33.545Z,98590.00
2017-08-10T22:05:01.878Z,98593.05
2017-08-10T22:07:30.302Z,98598.67
2017-08-10T22:09:58.644Z,98606.88
2017-08-10T22:12:27.741Z,98607.78
2017-08-10T22:14:56.096Z,98604.20
2017-08-10T22:17:24.451Z,98603.09
2017-08-10T22:19:52.795Z,98610.01
2017-08-10T22:22:21.154Z,98612.70
2017-08-10T22:24:50.553Z,98620.42
2017-08-10T22:27:18.885Z,98612.04
2017-08-10T22:29:47.221Z,98615.98
2017-08-10T22:32:16.337Z,98607.59
2017-08-10T22:34:44.672Z,98616.31
2017-08-10T22:37:13.036Z,98621.99
2017-08-10T22:39:41.362Z,98616.31
2017-08-10T22:42:10.707Z,98612.93
2017-08-10T22:44:39.944Z,98612.67
2017-08-10T22:47:08.269Z,98614.13
2017-08-10T22:49:36.617Z,98612.27
2017-08-10T22:52:04.948Z,98609.80
2017-08-10T22:54:33.292Z,98604.95
2017-08-10T22:57:01.616Z,98605.06
2017-08-10T22:59:30.345Z,98603.34
2017-08-10T23:01:58.662Z,98602.66
2017-08-10T23:04:27.897Z,98609.25
2017-08-10T23:06:56.240Z,98604.30
2017-08-10T23:09:24.600Z,98600.17
2017-08-10T23:11:53.786Z,98594.11
2017-08-10T23:14:22.106Z,98593.97
2017-08-10T23:16:50.429Z,98593.47
2017-08-10T23:19:18.785Z,98593.45
2017-08-10T23:21:47.124Z,98588.84
2017-08-10T23:24:15.604Z,98591.27
2017-08-10T23:26:43.964Z,98584.61
2017-08-10T23:29:13.096Z,98587.33
2017-08-10T23:31:41.434Z,98589.33
2017-08-10T23:34:09.794Z,98586.53
2017-08-10T23:36:38.162Z,98588.44
2017-08-10T23:39:06.499Z,98575.59
2017-08-10T23:41:35.796Z,98580.33
2017-08-10T23:44:04.145Z,98577.81
2017-08-10T23:46:32.870Z,98581.34
2017-08-10T23:49:01.215Z,98576.28
2017-08-10T23:51:30.327Z,98574.07
2017-08-10T23:53:58.676Z,98575.95
2017-08-10T23:56:26.987Z,98573.97
2017-08-10T23:58:56.142Z,98565.08
